Time,TemperatureF,DewpointF,PressureIn,WindDirection,WindDirectionDegrees,WindSpeedMPH,WindSpeedGustMPH,Humidity,HourlyPrecipIn,Conditions,Clouds,dailyrainin,SoftwareType,DateUTC
2013-06-07 00:00:00,63.6,63.3,29.80,SW,219,2.0,4.0,99,0.84,,OVC012,-99.99,VWS V12.06,2013-06-07 04:00:00,
2013-06-07 00:02:00,62.8,60.8,29.75,West,267,0.0,2.0,93,0.57,,OVC012,-99.99,VWS V12.06,2013-06-07 04:02:00,
2013-06-07 00:30:00,63.3,63.0,29.79,WSW,244,5.0,6.0,99,0.40,,OVC012,-99.99,VWS V12.06,2013-06-07 04:30:00,
2013-06-07 00:32:00,62.9,61.2,29.74,SE,146,3.0,5.0,94,0.46,,OVC012,-99.99,VWS V12.06,2013-06-07 04:32:00,
2013-06-07 01:00:00,63.1,62.8,29.78,SW,235,2.0,4.0,99,0.09, RA,RA,-99.99,VWS V12.06,2013-06-07 05:00:00,
2013-06-07 01:02:00,63.1,62.8,29.77,WSW,256,9.0,10.0,99,0.10, RA,RA,-99.99,VWS V12.06,2013-06-07 05:02:00,
2013-06-07 01:30:00,62.9,62.6,29.78,South,175,0.0,1.0,99,0.12, RA,RA,-99.99,VWS V12.06,2013-06-07 05:30:00,
2013-06-07 02:00:00,62.5,62.2,29.77,SW,220,0.0,5.0,99,0.15, DZ,,-99.99,VWS V12.06,2013-06-07 06:00:00,
2013-06-07 02:30:00,61.7,61.4,29.75,SSE,167,3.0,5.0,99,0.11, DZ,,-99.99,VWS V12.06,2013-06-07 06:30:00,
2013-06-07 03:00:00,61.7,61.4,29.74,SSW,208,3.0,3.0,99,0.08,,OVC002,-99.99,VWS V12.06,2013-06-07 07:00:00,
2013-06-07 03:30:00,61.7,61.4,29.73,SW,232,2.0,3.0,99,0.05,,OVC002,-99.99,VWS V12.06,2013-06-07 07:30:00,
2013-06-07 04:00:00,61.8,61.5,29.72,SW,214,0.0,0.0,99,0.04, -RA,-RA,-99.99,VWS V12.06,2013-06-07 08:00:00,
2013-06-07 04:30:00,61.8,61.5,29.71,SW,214,0.0,0.0,99,0.03, -RA,-RA,-99.99,VWS V12.06,2013-06-07 08:30:00,
2013-06-07 05:00:00,61.8,61.5,29.70,SW,214,0.0,0.0,99,0.03, -RA,-RA,-99.99,VWS V12.06,2013-06-07 09:00:00,
2013-06-07 05:30:00,61.6,61.3,29.69,SW,214,0.0,0.0,99,0.04, -RA,-RA,-99.99,VWS V12.06,2013-06-07 09:30:00,
2013-06-07 06:00:00,61.6,61.3,29.69,SW,217,0.0,1.0,99,0.02, -RA,-RA,-99.99,VWS V12.06,2013-06-07 10:00:00,
2013-06-07 06:30:00,61.5,61.2,29.69,North,355,0.0,0.0,99,0.00, -RA,-RA,-99.99,VWS V12.06,2013-06-07 10:30:00,
2013-06-07 07:00:00,61.7,61.4,29.69,North,355,0.0,0.0,99,0.00, RA,RA,-99.99,VWS V12.06,2013-06-07 11:00:00,
2013-06-07 07:30:00,61.9,61.6,29.68,North,355,0.0,0.0,99,0.01, RA,RA,-99.99,VWS V12.06,2013-06-07 11:30:00,
2013-06-07 08:00:00,62.0,61.7,29.67,North,11,3.0,3.0,99,0.02, -RA,-RA,-99.99,VWS V12.06,2013-06-07 12:00:00,
2013-06-07 08:30:00,62.5,62.2,29.67,North,355,7.0,7.0,99,0.01, -RA,-RA,-99.99,VWS V12.06,2013-06-07 12:30:00,
2013-06-07 09:00:00,63.4,63.1,29.67,NNE,30,4.0,4.0,99,0.00, -RA,-RA,-99.99,VWS V12.06,2013-06-07 13:00:00,
2013-06-07 09:30:00,64.1,63.8,29.67,North,360,0.0,0.0,99,0.00, -RA,-RA,-99.99,VWS V12.06,2013-06-07 13:30:00,
2013-06-07 10:00:00,64.0,63.7,29.66,North,355,4.0,6.0,99,0.00,,OVC047,-99.99,VWS V12.06,2013-06-07 14:00:00,
2013-06-07 10:30:00,65.0,64.7,29.66,NNW,338,2.0,3.0,99,0.00,,OVC047,-99.99,VWS V12.06,2013-06-07 14:30:00,
2013-06-07 11:00:00,65.2,64.9,29.67,North,5,0.0,1.0,99,0.00,,OVC120,-99.99,VWS V12.06,2013-06-07 15:00:00,
2013-06-07 11:30:00,66.2,65.9,29.66,ENE,59,0.0,0.0,99,0.00,,OVC120,-99.99,VWS V12.06,2013-06-07 15:30:00,
2013-06-07 12:00:00,67.0,66.4,29.66,West,273,6.0,6.0,98,0.00,,OVC019,-99.99,VWS V12.06,2013-06-07 16:00:00,
2013-06-07 12:30:00,66.7,65.8,29.66,NNE,14,4.0,4.0,97,0.00,,OVC019,-99.99,VWS V12.06,2013-06-07 16:30:00,
2013-06-07 13:00:00,67.1,65.9,29.66,NNW,339,6.0,6.0,96,0.00,,OVC031,-99.99,VWS V12.06,2013-06-07 17:00:00,
2013-06-07 13:30:00,68.5,66.1,29.65,NNW,336,4.0,5.0,92,0.00,,OVC031,-99.99,VWS V12.06,2013-06-07 17:30:00,
2013-06-07 14:00:00,69.5,65.5,29.65,North,351,2.0,7.0,87,0.00,,BKN070,-99.99,VWS V12.06,2013-06-07 18:00:00,
2013-06-07 14:30:00,70.8,65.0,29.65,NNW,341,1.0,1.0,82,0.00,,BKN070,-99.99,VWS V12.06,2013-06-07 18:30:00,
2013-06-07 15:00:00,71.0,64.9,29.65,North,355,1.0,1.0,81,0.00,,OVC120,-99.99,VWS V12.06,2013-06-07 19:00:00,
2013-06-07 15:30:00,70.9,64.8,29.66,West,265,2.0,9.0,81,0.00,,OVC120,-99.99,VWS V12.06,2013-06-07 19:30:00,
2013-06-07 16:02:00,66.3,61.3,29.65,West,279,10.0,12.0,84,0.00,,OVC048,-99.99,VWS V12.06,2013-06-07 20:02:00,
2013-06-07 16:30:00,70.7,64.6,29.67,WSW,241,1.0,3.0,81,0.00,,OVC048,-99.99,VWS V12.06,2013-06-07 20:30:00,
2013-06-07 17:00:00,69.9,63.5,29.67,NNW,333,4.0,4.0,80,0.00,,OVC070,-99.99,VWS V12.06,2013-06-07 21:00:00,
2013-06-07 17:30:00,69.4,63.0,29.68,NNW,333,2.0,6.0,80,0.00,,OVC070,-99.99,VWS V12.06,2013-06-07 21:30:00,
2013-06-07 18:00:00,70.7,63.5,29.69,NW,307,4.0,4.0,78,0.00,,OVC085,-99.99,VWS V12.06,2013-06-07 22:00:00,
2013-06-07 18:30:00,69.4,63.3,29.69,NNW,347,3.0,3.0,81,0.00,,OVC085,-99.99,VWS V12.06,2013-06-07 22:30:00,
2013-06-07 19:00:00,70.6,63.8,29.71,NE,39,0.0,4.0,79,0.00,,BKN100,-99.99,VWS V12.06,2013-06-07 23:00:00,
2013-06-07 19:30:00,69.3,61.8,29.72,NNW,327,5.0,5.0,77,0.00,,BKN100,-99.99,VWS V12.06,2013-06-07 23:30:00,
2013-06-07 20:00:00,66.6,60.2,29.73,NNE,17,0.0,2.0,80,0.00,,CLR,-99.99,VWS V12.06,2013-06-08 00:00:00,
2013-06-07 20:30:00,65.3,59.7,29.75,North,360,5.0,5.0,82,0.00,,CLR,-99.99,VWS V12.06,2013-06-08 00:30:00,
2013-06-07 21:00:00,64.4,59.1,29.77,NW,316,0.0,1.0,83,0.00,,CLR,-99.99,VWS V12.06,2013-06-08 01:00:00,
2013-06-07 21:30:00,63.5,58.6,29.78,WNW,283,2.0,2.0,84,0.00,,CLR,-99.99,VWS V12.06,2013-06-08 01:30:00,
2013-06-07 22:00:00,63.5,58.2,29.80,WNW,296,0.0,0.0,83,0.00,,CLR,-99.99,VWS V12.06,2013-06-08 02:00:00,
2013-06-07 22:32:00,62.6,58.4,29.78,SW,228,0.0,1.0,86,0.00,,CLR,-99.99,VWS V12.06,2013-06-08 02:32:00,
2013-06-07 23:00:00,63.2,59.0,29.83,SSW,213,0.0,0.0,86,0.01,,SCT100,-99.99,VWS V12.06,2013-06-08 03:00:00,
2013-06-07 23:30:00,62.7,58.8,29.82,SSW,211,1.0,1.0,87,0.02,,SCT100,-99.99,VWS V12.06,2013-06-08 03:30:00,